APL Indonesia — V2EC7 — position and weather

sailwx.info

Track history (hours):
 
Tides and Currents Weather Stations Pressure Air Temp Water Temp Dewpoint Dewpoint Depression Visibility Wind Speed Wind Dir Waves Ship Positions

APL Indonesia

Last reported at 2014-Dec-09 01:12 UTC. Time now 2014-Dec-18 20:19 UTC.
Position N 25°33' W 079°59'.
Warning: this ship's position is 9 days out of date.

Length 261 m; draft 8.8 m.

Type: Ship (hazmat cat D). MMSI: 305386000.

Date/timePositionNaut miles runAvg speedWind from/ knotsBaromVisibWave heightAir tempDewpointWater temp
2014-Dec-09 01:12N 25°33' W 079°59'1015.0
2014-Dec-09 00:33N 25°42' W 080°02'8 7.5
2014-Dec-08 23:31N 25°46' W 080°10'1 0.2
2014-Dec-08 20:24N 25°46' W 080°09'0 0.0
2014-Dec-08 19:24N 25°46' W 080°09'0 0.0
2014-Dec-08 16:24N 25°46' W 080°09'0 0.0
2014-Dec-08 15:27N 25°46' W 080°09'0 0.0
2014-Dec-08 14:30N 25°46' W 080°09'0 0.0
2014-Dec-08 13:30N 25°46' W 080°09'0 0.0
2014-Dec-08 12:30N 25°46' W 080°09'2 1.8
2014-Dec-08 11:33N 25°46' W 080°07'6 6.3
2014-Dec-08 10:33N 25°48' W 080°01'10 9.9
2014-Dec-08 09:33N 25°56' W 079°55'10 9.8
2014-Dec-08 08:33N 26°06' W 079°52'1211.6
2014-Dec-08 07:33N 26°17' W 079°52'1211.9
2014-Dec-08 06:33N 26°29' W 079°52'1211.8
2014-Dec-08 05:33N 26°41' W 079°52'1312.7
2014-Dec-08 04:33N 26°54' W 079°52'1313.1
2014-Dec-08 03:33N 27°07' W 079°52'  
2014-Dec-02 12:25N 39°41' W 073°52'1112.3
2014-Dec-02 11:31N 39°53' W 073°51'3310.9
2014-Dec-02 08:32N 40°25' W 073°49'10 9.6
2014-Dec-02 07:32N 40°31' W 073°59'1010.5
2014-Dec-02 06:33N 40°39' W 074°08'2 1.7
2014-Dec-02 05:33N 40°40' W 074°09'0 0.0
2014-Dec-02 04:33N 40°40' W 074°09'0 0.0
2014-Dec-02 03:33N 40°40' W 074°09'0 0.0
2014-Dec-02 02:33N 40°40' W 074°09'0 0.0
2014-Dec-02 01:33N 40°40' W 074°09'0 0.0
2014-Dec-02 00:32N 40°40' W 074°09'0 0.0
2014-Dec-01 23:32N 40°40' W 074°09'0 0.0
2014-Dec-01 22:32N 40°40' W 074°09'0 0.0
2014-Dec-01 21:32N 40°40' W 074°09'0 0.0
2014-Dec-01 20:32N 40°40' W 074°09'0 0.0
2014-Dec-01 19:32N 40°40' W 074°09'0 0.0
2014-Dec-01 18:32N 40°40' W 074°09'0 0.0
2014-Dec-01 17:32N 40°40' W 074°09'0 0.0
2014-Dec-01 16:32N 40°40' W 074°09'0 0.0
2014-Dec-01 15:32N 40°40' W 074°09'0 0.0
2014-Dec-01 14:32N 40°40' W 074°09'0 0.0
2014-Dec-01 13:32N 40°40' W 074°09'0 0.0
2014-Dec-01 12:32N 40°40' W 074°09'1 1.1
2014-Dec-01 11:33N 40°39' W 074°09'5 5.3
2014-Dec-01 10:33N 40°37' W 074°03'1010.4
2014-Dec-01 09:33N 40°29' W 073°54'7 6.7
2014-Dec-01 08:30N 40°24' W 073°47'3410.9
2014-Dec-01 05:21N 39°50' W 073°41'1113.7
2014-Dec-01 04:32N 39°39' W 073°40'2114.7
2014-Dec-01 03:05N 39°17' W 073°40'814.8
2014-Dec-01 02:33N 39°09' W 073°41'1514.8
2014-Dec-01 01:33N 38°55' W 073°45'1514.6
2014-Dec-01 00:33N 38°41' W 073°49'1514.5
2014-Nov-30 23:32N 38°26' W 073°53'  
Track history (hours):
 
Tides and Currents Weather Stations Pressure Air Temp Water Temp Dewpoint Dewpoint Depression Visibility Wind Speed Wind Dir Waves Ship Positions

APL Indonesia

Last reported at 2014-Dec-09 01:12 UTC. Time now 2014-Dec-18 20:19 UTC.
Position N 25°33' W 079°59'.
Warning: this ship's position is 9 days out of date.

Length 261 m; draft 8.8 m.

Type: Ship (hazmat cat D). MMSI: 305386000.

Date/timePositionNaut miles runAvg speedWind from/ knotsBaromVisibWave heightAir tempDewpointWater temp
2014-Dec-09 01:12N 25°33' W 079°59'1015.0
2014-Dec-09 00:33N 25°42' W 080°02'8 7.5
2014-Dec-08 23:31N 25°46' W 080°10'1 0.2
2014-Dec-08 20:24N 25°46' W 080°09'0 0.0
2014-Dec-08 19:24N 25°46' W 080°09'0 0.0
2014-Dec-08 16:24N 25°46' W 080°09'0 0.0
2014-Dec-08 15:27N 25°46' W 080°09'0 0.0
2014-Dec-08 14:30N 25°46' W 080°09'0 0.0
2014-Dec-08 13:30N 25°46' W 080°09'0 0.0
2014-Dec-08 12:30N 25°46' W 080°09'2 1.8
2014-Dec-08 11:33N 25°46' W 080°07'6 6.3
2014-Dec-08 10:33N 25°48' W 080°01'10 9.9
2014-Dec-08 09:33N 25°56' W 079°55'10 9.8
2014-Dec-08 08:33N 26°06' W 079°52'1211.6
2014-Dec-08 07:33N 26°17' W 079°52'1211.9
2014-Dec-08 06:33N 26°29' W 079°52'1211.8
2014-Dec-08 05:33N 26°41' W 079°52'1312.7
2014-Dec-08 04:33N 26°54' W 079°52'1313.1
2014-Dec-08 03:33N 27°07' W 079°52'  
2014-Dec-02 12:25N 39°41' W 073°52'1112.3
2014-Dec-02 11:31N 39°53' W 073°51'3310.9
2014-Dec-02 08:32N 40°25' W 073°49'10 9.6
2014-Dec-02 07:32N 40°31' W 073°59'1010.5
2014-Dec-02 06:33N 40°39' W 074°08'2 1.7
2014-Dec-02 05:33N 40°40' W 074°09'0 0.0
2014-Dec-02 04:33N 40°40' W 074°09'0 0.0
2014-Dec-02 03:33N 40°40' W 074°09'0 0.0
2014-Dec-02 02:33N 40°40' W 074°09'0 0.0
2014-Dec-02 01:33N 40°40' W 074°09'0 0.0
2014-Dec-02 00:32N 40°40' W 074°09'0 0.0
2014-Dec-01 23:32N 40°40' W 074°09'0 0.0
2014-Dec-01 22:32N 40°40' W 074°09'0 0.0
2014-Dec-01 21:32N 40°40' W 074°09'0 0.0
2014-Dec-01 20:32N 40°40' W 074°09'0 0.0
2014-Dec-01 19:32N 40°40' W 074°09'0 0.0
2014-Dec-01 18:32N 40°40' W 074°09'0 0.0
2014-Dec-01 17:32N 40°40' W 074°09'0 0.0
2014-Dec-01 16:32N 40°40' W 074°09'0 0.0
2014-Dec-01 15:32N 40°40' W 074°09'0 0.0
2014-Dec-01 14:32N 40°40' W 074°09'0 0.0
2014-Dec-01 13:32N 40°40' W 074°09'0 0.0
2014-Dec-01 12:32N 40°40' W 074°09'1 1.1
2014-Dec-01 11:33N 40°39' W 074°09'5 5.3
2014-Dec-01 10:33N 40°37' W 074°03'1010.4
2014-Dec-01 09:33N 40°29' W 073°54'7 6.7
2014-Dec-01 08:30N 40°24' W 073°47'3410.9
2014-Dec-01 05:21N 39°50' W 073°41'1113.7
2014-Dec-01 04:32N 39°39' W 073°40'2114.7
2014-Dec-01 03:05N 39°17' W 073°40'814.8
2014-Dec-01 02:33N 39°09' W 073°41'1514.8
2014-Dec-01 01:33N 38°55' W 073°45'1514.6
2014-Dec-01 00:33N 38°41' W 073°49'1514.5
2014-Nov-30 23:32N 38°26' W 073°53'  

Dump ship's entire track history